Fairbury, Illinois
Current Conditions -  °F | °C
As of 8:35 AM on Saturday 25 Oct 2014 (Local Time) from KPNT Reporting Station
Haze Haze  
Wind Chill: 57°   Ceiling: 200
Heat Index: 57°   Visibility: 0.75mi
Dew Point: 57°   Wind: 9mph
Humidity: 100%   Direction: 290°WNW
Pressure: 29.99"   Gusts: NA
Location:  40.75°N, 88.51°W
Report Text: KPNT 251335Z AUTO 29008KT 3/4SM BR OVC002 14/14 A2999 RMK AO2 T01410141
Loading
Personal Weather Stations






























Interactive Weather Map
Tropical Storm Tracking
New forecast layout! Learn more

10-Day Weather Forecast

Advertisements
Track Severe Weather on mobile